sensor_id;sensor_type;location;lat;lon;timestamp;P1;durP1;ratioP1;P2;durP2;ratioP2
75486;SDS011;64068;44.762;21.514;2022-10-17T00:01:15;17.10;;;11.97;;
75486;SDS011;64068;44.762;21.514;2022-10-17T00:03:41;19.30;;;11.80;;
75486;SDS011;64068;44.762;21.514;2022-10-17T00:06:09;16.03;;;11.00;;
75486;SDS011;64068;44.762;21.514;2022-10-17T00:08:36;21.07;;;11.77;;
75486;SDS011;64068;44.762;21.514;2022-10-17T00:11:04;19.83;;;11.53;;
75486;SDS011;64068;44.762;21.514;2022-10-17T00:13:31;18.17;;;11.27;;
75486;SDS011;64068;44.762;21.514;2022-10-17T00:15:57;18.63;;;11.17;;
75486;SDS011;64068;44.762;21.514;2022-10-17T00:18:23;17.67;;;10.50;;
75486;SDS011;64068;44.762;21.514;2022-10-17T00:20:49;19.67;;;11.93;;
75486;SDS011;64068;44.762;21.514;2022-10-17T00:23:15;22.97;;;12.13;;
75486;SDS011;64068;44.762;21.514;2022-10-17T00:25:42;19.40;;;12.57;;
75486;SDS011;64068;44.762;21.514;2022-10-17T00:28:12;19.60;;;11.40;;
75486;SDS011;64068;44.762;21.514;2022-10-17T00:30:39;14.60;;;10.05;;
75486;SDS011;64068;44.762;21.514;2022-10-17T00:33:06;21.30;;;11.27;;
75486;SDS011;64068;44.762;21.514;2022-10-17T00:35:32;14.40;;;10.27;;
75486;SDS011;64068;44.762;21.514;2022-10-17T00:37:58;18.20;;;11.07;;
75486;SDS011;64068;44.762;21.514;2022-10-17T00:40:24;14.67;;;10.27;;
75486;SDS011;64068;44.762;21.514;2022-10-17T00:42:50;13.67;;;10.77;;
75486;SDS011;64068;44.762;21.514;2022-10-17T00:45:25;13.77;;;10.50;;
75486;SDS011;64068;44.762;21.514;2022-10-17T00:48:05;22.03;;;11.80;;
75486;SDS011;64068;44.762;21.514;2022-10-17T00:50:32;17.80;;;11.13;;
75486;SDS011;64068;44.762;21.514;2022-10-17T00:53:00;15.13;;;10.87;;
75486;SDS011;64068;44.762;21.514;2022-10-17T00:55:28;19.93;;;11.40;;
75486;SDS011;64068;44.762;21.514;2022-10-17T00:57:56;17.50;;;11.07;;
75486;SDS011;64068;44.762;21.514;2022-10-17T01:00:22;16.60;;;10.47;;
75486;SDS011;64068;44.762;21.514;2022-10-17T01:02:49;17.13;;;11.40;;
75486;SDS011;64068;44.762;21.514;2022-10-17T01:05:15;15.70;;;11.40;;
75486;SDS011;64068;44.762;21.514;2022-10-17T01:07:41;17.00;;;11.17;;
75486;SDS011;64068;44.762;21.514;2022-10-17T01:10:08;21.70;;;11.47;;
75486;SDS011;64068;44.762;21.514;2022-10-17T01:12:40;17.63;;;10.97;;
75486;SDS011;64068;44.762;21.514;2022-10-17T01:15:17;17.67;;;11.70;;
75486;SDS011;64068;44.762;21.514;2022-10-17T01:28:19;17.57;;;11.10;;
75486;SDS011;64068;44.762;21.514;2022-10-17T01:31:05;19.50;;;11.30;;
75486;SDS011;64068;44.762;21.514;2022-10-17T01:36:08;18.60;;;11.80;;
75486;SDS011;64068;44.762;21.514;2022-10-17T01:38:42;19.23;;;11.67;;
75486;SDS011;64068;44.762;21.514;2022-10-17T01:43:46;27.87;;;14.13;;
75486;SDS011;64068;44.762;21.514;2022-10-17T01:46:34;28.93;;;15.33;;
75486;SDS011;64068;44.762;21.514;2022-10-17T01:49:01;43.13;;;18.57;;
75486;SDS011;64068;44.762;21.514;2022-10-17T01:51:30;51.23;;;22.13;;
75486;SDS011;64068;44.762;21.514;2022-10-17T01:56:24;72.53;;;29.93;;
75486;SDS011;64068;44.762;21.514;2022-10-17T01:58:54;79.27;;;33.70;;
75486;SDS011;64068;44.762;21.514;2022-10-17T02:01:22;113.37;;;45.97;;
75486;SDS011;64068;44.762;21.514;2022-10-17T02:03:49;128.93;;;51.30;;
75486;SDS011;64068;44.762;21.514;2022-10-17T02:06:16;148.27;;;58.20;;
75486;SDS011;64068;44.762;21.514;2022-10-17T02:08:46;154.83;;;62.60;;
75486;SDS011;64068;44.762;21.514;2022-10-17T02:18:46;95.47;;;39.07;;
75486;SDS011;64068;44.762;21.514;2022-10-17T02:21:19;83.03;;;36.27;;
75486;SDS011;64068;44.762;21.514;2022-10-17T02:23:52;90.03;;;41.50;;
75486;SDS011;64068;44.762;21.514;2022-10-17T02:26:24;84.57;;;35.53;;
75486;SDS011;64068;44.762;21.514;2022-10-17T02:31:46;71.40;;;33.23;;
75486;SDS011;64068;44.762;21.514;2022-10-17T02:34:19;70.80;;;31.83;;
75486;SDS011;64068;44.762;21.514;2022-10-17T02:36:48;73.40;;;32.73;;
75486;SDS011;64068;44.762;21.514;2022-10-17T02:39:16;68.97;;;30.57;;
75486;SDS011;64068;44.762;21.514;2022-10-17T02:41:43;63.33;;;29.10;;
75486;SDS011;64068;44.762;21.514;2022-10-17T02:44:10;64.93;;;29.33;;
75486;SDS011;64068;44.762;21.514;2022-10-17T02:46:36;59.70;;;27.67;;
75486;SDS011;64068;44.762;21.514;2022-10-17T02:49:07;59.83;;;28.03;;
75486;SDS011;64068;44.762;21.514;2022-10-17T02:51:57;57.00;;;26.77;;
75486;SDS011;64068;44.762;21.514;2022-10-17T02:57:15;53.07;;;25.00;;
75486;SDS011;64068;44.762;21.514;2022-10-17T02:59:42;68.40;;;29.13;;
75486;SDS011;64068;44.762;21.514;2022-10-17T03:02:09;70.07;;;30.83;;
75486;SDS011;64068;44.762;21.514;2022-10-17T03:04:35;65.33;;;31.07;;
75486;SDS011;64068;44.762;21.514;2022-10-17T03:07:02;64.30;;;28.30;;
75486;SDS011;64068;44.762;21.514;2022-10-17T03:09:28;55.70;;;26.93;;
75486;SDS011;64068;44.762;21.514;2022-10-17T03:11:54;74.70;;;34.10;;
75486;SDS011;64068;44.762;21.514;2022-10-17T03:14:20;90.43;;;40.03;;
75486;SDS011;64068;44.762;21.514;2022-10-17T03:16:46;74.43;;;34.53;;
75486;SDS011;64068;44.762;21.514;2022-10-17T03:19:13;64.80;;;30.93;;
75486;SDS011;64068;44.762;21.514;2022-10-17T03:21:39;57.93;;;29.03;;
75486;SDS011;64068;44.762;21.514;2022-10-17T03:24:05;58.57;;;27.93;;
75486;SDS011;64068;44.762;21.514;2022-10-17T03:26:31;61.63;;;29.10;;
75486;SDS011;64068;44.762;21.514;2022-10-17T03:28:57;63.50;;;29.93;;
75486;SDS011;64068;44.762;21.514;2022-10-17T03:31:23;101.67;;;44.57;;
75486;SDS011;64068;44.762;21.514;2022-10-17T03:33:49;76.03;;;37.13;;
75486;SDS011;64068;44.762;21.514;2022-10-17T03:36:17;64.23;;;31.47;;
75486;SDS011;64068;44.762;21.514;2022-10-17T03:38:43;83.03;;;35.00;;
75486;SDS011;64068;44.762;21.514;2022-10-17T03:41:10;75.77;;;36.17;;
75486;SDS011;64068;44.762;21.514;2022-10-17T03:43:36;72.20;;;33.57;;
75486;SDS011;64068;44.762;21.514;2022-10-17T03:46:02;55.97;;;28.17;;
75486;SDS011;64068;44.762;21.514;2022-10-17T03:48:29;58.00;;;27.37;;
75486;SDS011;64068;44.762;21.514;2022-10-17T03:50:59;47.07;;;24.43;;
75486;SDS011;64068;44.762;21.514;2022-10-17T03:53:25;50.10;;;25.67;;
75486;SDS011;64068;44.762;21.514;2022-10-17T03:55:51;55.77;;;26.93;;
75486;SDS011;64068;44.762;21.514;2022-10-17T03:58:18;48.10;;;25.40;;
75486;SDS011;64068;44.762;21.514;2022-10-17T04:00:44;44.63;;;21.70;;
75486;SDS011;64068;44.762;21.514;2022-10-17T04:03:10;48.03;;;24.93;;
75486;SDS011;64068;44.762;21.514;2022-10-17T04:05:36;48.97;;;25.90;;
75486;SDS011;64068;44.762;21.514;2022-10-17T04:08:02;43.93;;;24.67;;
75486;SDS011;64068;44.762;21.514;2022-10-17T04:10:28;46.80;;;24.47;;
75486;SDS011;64068;44.762;21.514;2022-10-17T04:12:55;46.57;;;23.47;;
75486;SDS011;64068;44.762;21.514;2022-10-17T04:15:21;44.20;;;21.73;;
75486;SDS011;64068;44.762;21.514;2022-10-17T04:17:47;39.03;;;20.80;;
75486;SDS011;64068;44.762;21.514;2022-10-17T04:20:13;50.43;;;23.50;;
75486;SDS011;64068;44.762;21.514;2022-10-17T04:22:39;39.57;;;21.73;;
75486;SDS011;64068;44.762;21.514;2022-10-17T04:25:05;43.17;;;23.60;;
75486;SDS011;64068;44.762;21.514;2022-10-17T04:27:32;42.90;;;22.53;;
75486;SDS011;64068;44.762;21.514;2022-10-17T04:29:58;42.57;;;23.33;;
75486;SDS011;64068;44.762;21.514;2022-10-17T04:32:24;45.63;;;24.03;;
75486;SDS011;64068;44.762;21.514;2022-10-17T04:34:50;46.60;;;22.43;;
75486;SDS011;64068;44.762;21.514;2022-10-17T04:37:16;43.67;;;22.43;;
75486;SDS011;64068;44.762;21.514;2022-10-17T04:39:42;42.30;;;21.90;;
75486;SDS011;64068;44.762;21.514;2022-10-17T04:42:08;46.87;;;22.90;;
75486;SDS011;64068;44.762;21.514;2022-10-17T04:44:35;46.87;;;22.97;;
75486;SDS011;64068;44.762;21.514;2022-10-17T04:47:01;49.80;;;24.70;;
75486;SDS011;64068;44.762;21.514;2022-10-17T04:49:27;55.20;;;26.07;;
75486;SDS011;64068;44.762;21.514;2022-10-17T04:51:53;52.00;;;25.60;;
75486;SDS011;64068;44.762;21.514;2022-10-17T04:54:19;58.13;;;26.83;;
75486;SDS011;64068;44.762;21.514;2022-10-17T04:56:46;54.07;;;25.20;;
75486;SDS011;64068;44.762;21.514;2022-10-17T04:59:12;57.67;;;26.67;;
75486;SDS011;64068;44.762;21.514;2022-10-17T05:01:38;64.13;;;26.10;;
75486;SDS011;64068;44.762;21.514;2022-10-17T05:04:04;59.97;;;27.80;;
75486;SDS011;64068;44.762;21.514;2022-10-17T05:06:31;53.77;;;27.70;;
75486;SDS011;64068;44.762;21.514;2022-10-17T05:08:57;62.53;;;27.43;;
75486;SDS011;64068;44.762;21.514;2022-10-17T05:11:24;50.83;;;24.87;;
75486;SDS011;64068;44.762;21.514;2022-10-17T05:13:51;49.87;;;25.47;;
75486;SDS011;64068;44.762;21.514;2022-10-17T05:16:18;59.13;;;27.40;;
75486;SDS011;64068;44.762;21.514;2022-10-17T05:18:46;48.93;;;24.70;;
75486;SDS011;64068;44.762;21.514;2022-10-17T05:21:13;39.30;;;22.20;;
75486;SDS011;64068;44.762;21.514;2022-10-17T05:23:39;42.63;;;22.47;;
75486;SDS011;64068;44.762;21.514;2022-10-17T05:26:05;37.77;;;21.03;;
75486;SDS011;64068;44.762;21.514;2022-10-17T05:28:31;42.73;;;28.00;;
75486;SDS011;64068;44.762;21.514;2022-10-17T05:31:00;46.63;;;26.80;;
75486;SDS011;64068;44.762;21.514;2022-10-17T05:33:27;48.40;;;25.27;;
75486;SDS011;64068;44.762;21.514;2022-10-17T05:35:53;39.50;;;22.73;;
75486;SDS011;64068;44.762;21.514;2022-10-17T05:38:19;45.30;;;24.97;;
75486;SDS011;64068;44.762;21.514;2022-10-17T05:40:45;40.33;;;22.67;;
75486;SDS011;64068;44.762;21.514;2022-10-17T05:43:11;43.67;;;22.10;;
75486;SDS011;64068;44.762;21.514;2022-10-17T05:45:39;35.80;;;20.97;;
75486;SDS011;64068;44.762;21.514;2022-10-17T05:48:05;38.03;;;21.77;;
75486;SDS011;64068;44.762;21.514;2022-10-17T05:50:33;48.10;;;20.47;;
75486;SDS011;64068;44.762;21.514;2022-10-17T05:52:59;44.83;;;22.73;;
75486;SDS011;64068;44.762;21.514;2022-10-17T05:55:26;40.33;;;23.27;;
75486;SDS011;64068;44.762;21.514;2022-10-17T05:57:52;45.10;;;22.37;;
75486;SDS011;64068;44.762;21.514;2022-10-17T06:00:19;46.83;;;25.93;;
75486;SDS011;64068;44.762;21.514;2022-10-17T06:02:45;48.03;;;23.70;;
75486;SDS011;64068;44.762;21.514;2022-10-17T06:05:11;45.90;;;27.07;;
75486;SDS011;64068;44.762;21.514;2022-10-17T06:07:38;51.75;;;25.75;;
75486;SDS011;64068;44.762;21.514;2022-10-17T06:10:04;43.35;;;26.25;;
75486;SDS011;64068;44.762;21.514;2022-10-17T06:12:30;46.30;;;22.40;;
75486;SDS011;64068;44.762;21.514;2022-10-17T06:14:56;48.85;;;22.52;;
75486;SDS011;64068;44.762;21.514;2022-10-17T06:17:23;39.42;;;20.70;;
75486;SDS011;64068;44.762;21.514;2022-10-17T06:19:49;41.22;;;19.77;;
75486;SDS011;64068;44.762;21.514;2022-10-17T06:22:15;42.75;;;20.13;;
75486;SDS011;64068;44.762;21.514;2022-10-17T06:24:41;46.05;;;20.00;;
75486;SDS011;64068;44.762;21.514;2022-10-17T06:27:07;36.60;;;19.27;;
75486;SDS011;64068;44.762;21.514;2022-10-17T06:29:34;44.72;;;20.63;;
75486;SDS011;64068;44.762;21.514;2022-10-17T06:32:00;26.65;;;13.68;;
75486;SDS011;64068;44.762;21.514;2022-10-17T06:34:26;24.52;;;13.55;;
75486;SDS011;64068;44.762;21.514;2022-10-17T06:36:52;21.65;;;12.50;;
75486;SDS011;64068;44.762;21.514;2022-10-17T06:39:18;25.33;;;13.85;;
75486;SDS011;64068;44.762;21.514;2022-10-17T06:41:44;24.63;;;14.18;;
75486;SDS011;64068;44.762;21.514;2022-10-17T06:44:10;26.02;;;14.18;;
75486;SDS011;64068;44.762;21.514;2022-10-17T06:46:37;31.95;;;15.60;;
75486;SDS011;64068;44.762;21.514;2022-10-17T06:49:04;35.17;;;18.08;;
75486;SDS011;64068;44.762;21.514;2022-10-17T06:51:30;38.33;;;19.50;;
75486;SDS011;64068;44.762;21.514;2022-10-17T06:53:57;46.67;;;21.20;;
75486;SDS011;64068;44.762;21.514;2022-10-17T06:56:23;32.60;;;17.35;;
75486;SDS011;64068;44.762;21.514;2022-10-17T06:58:50;41.72;;;20.90;;
75486;SDS011;64068;44.762;21.514;2022-10-17T07:01:17;35.80;;;19.05;;
75486;SDS011;64068;44.762;21.514;2022-10-17T07:03:45;42.08;;;23.55;;
75486;SDS011;64068;44.762;21.514;2022-10-17T07:06:12;35.63;;;20.23;;
75486;SDS011;64068;44.762;21.514;2022-10-17T07:08:42;31.58;;;18.02;;
75486;SDS011;64068;44.762;21.514;2022-10-17T07:11:13;30.90;;;15.68;;
75486;SDS011;64068;44.762;21.514;2022-10-17T07:13:40;24.52;;;14.07;;
75486;SDS011;64068;44.762;21.514;2022-10-17T07:16:06;26.88;;;14.45;;
75486;SDS011;64068;44.762;21.514;2022-10-17T07:18:32;24.13;;;14.70;;
75486;SDS011;64068;44.762;21.514;2022-10-17T07:20:59;26.77;;;13.32;;
75486;SDS011;64068;44.762;21.514;2022-10-17T07:23:25;24.77;;;14.68;;
75486;SDS011;64068;44.762;21.514;2022-10-17T07:25:51;27.20;;;14.80;;
75486;SDS011;64068;44.762;21.514;2022-10-17T07:28:18;11.75;;;8.32;;
75486;SDS011;64068;44.762;21.514;2022-10-17T07:30:44;12.95;;;7.35;;
75486;SDS011;64068;44.762;21.514;2022-10-17T07:33:10;21.65;;;12.85;;
75486;SDS011;64068;44.762;21.514;2022-10-17T07:35:37;21.38;;;12.82;;
75486;SDS011;64068;44.762;21.514;2022-10-17T07:38:07;13.93;;;7.68;;
75486;SDS011;64068;44.762;21.514;2022-10-17T07:40:33;13.02;;;8.05;;
75486;SDS011;64068;44.762;21.514;2022-10-17T07:42:59;10.25;;;6.22;;
75486;SDS011;64068;44.762;21.514;2022-10-17T07:45:25;10.07;;;6.65;;
75486;SDS011;64068;44.762;21.514;2022-10-17T07:47:55;8.23;;;6.20;;
75486;SDS011;64068;44.762;21.514;2022-10-17T07:50:21;13.23;;;6.28;;
75486;SDS011;64068;44.762;21.514;2022-10-17T07:52:48;10.30;;;6.15;;
75486;SDS011;64068;44.762;21.514;2022-10-17T07:55:14;11.50;;;6.25;;
75486;SDS011;64068;44.762;21.514;2022-10-17T07:57:40;8.68;;;5.60;;
75486;SDS011;64068;44.762;21.514;2022-10-17T08:00:07;6.97;;;5.00;;
75486;SDS011;64068;44.762;21.514;2022-10-17T08:02:33;12.45;;;6.47;;
75486;SDS011;64068;44.762;21.514;2022-10-17T08:04:59;8.48;;;6.05;;
75486;SDS011;64068;44.762;21.514;2022-10-17T08:07:25;12.73;;;5.97;;
75486;SDS011;64068;44.762;21.514;2022-10-17T08:09:52;12.45;;;5.85;;
75486;SDS011;64068;44.762;21.514;2022-10-17T08:12:18;9.43;;;5.50;;
75486;SDS011;64068;44.762;21.514;2022-10-17T08:14:44;10.43;;;5.43;;
75486;SDS011;64068;44.762;21.514;2022-10-17T08:17:10;14.32;;;6.40;;
75486;SDS011;64068;44.762;21.514;2022-10-17T08:19:37;12.88;;;5.80;;
75486;SDS011;64068;44.762;21.514;2022-10-17T08:22:04;10.73;;;5.65;;
75486;SDS011;64068;44.762;21.514;2022-10-17T08:24:30;12.27;;;5.57;;
75486;SDS011;64068;44.762;21.514;2022-10-17T08:26:57;11.27;;;5.40;;
75486;SDS011;64068;44.762;21.514;2022-10-17T08:29:24;14.43;;;6.45;;
75486;SDS011;64068;44.762;21.514;2022-10-17T08:31:51;10.10;;;5.90;;
75486;SDS011;64068;44.762;21.514;2022-10-17T08:34:17;7.60;;;5.50;;
75486;SDS011;64068;44.762;21.514;2022-10-17T08:36:43;9.35;;;5.82;;
75486;SDS011;64068;44.762;21.514;2022-10-17T08:39:09;13.57;;;5.60;;
75486;SDS011;64068;44.762;21.514;2022-10-17T08:46:44;15.75;;;10.23;;
75486;SDS011;64068;44.762;21.514;2022-10-17T08:49:20;12.57;;;8.40;;
75486;SDS011;64068;44.762;21.514;2022-10-17T08:51:51;19.77;;;9.45;;
75486;SDS011;64068;44.762;21.514;2022-10-17T08:54:24;19.88;;;7.93;;
75486;SDS011;64068;44.762;21.514;2022-10-17T08:56:53;23.60;;;11.27;;
75486;SDS011;64068;44.762;21.514;2022-10-17T08:59:25;22.77;;;11.70;;
75486;SDS011;64068;44.762;21.514;2022-10-17T09:10:02;23.30;;;10.00;;
75486;SDS011;64068;44.762;21.514;2022-10-17T09:17:50;21.00;;;10.55;;
75486;SDS011;64068;44.762;21.514;2022-10-17T09:20:19;23.50;;;11.80;;
75486;SDS011;64068;44.762;21.514;2022-10-17T09:22:48;26.00;;;13.40;;
75486;SDS011;64068;44.762;21.514;2022-10-17T09:25:16;20.25;;;13.07;;
75486;SDS011;64068;44.762;21.514;2022-10-17T09:27:45;12.30;;;6.18;;
75486;SDS011;64068;44.762;21.514;2022-10-17T09:30:31;12.55;;;6.75;;
75486;SDS011;64068;44.762;21.514;2022-10-17T09:32:59;16.05;;;9.70;;
75486;SDS011;64068;44.762;21.514;2022-10-17T09:35:26;15.05;;;8.77;;
75486;SDS011;64068;44.762;21.514;2022-10-17T09:37:54;28.20;;;13.02;;
75486;SDS011;64068;44.762;21.514;2022-10-17T09:40:22;26.58;;;13.63;;
75486;SDS011;64068;44.762;21.514;2022-10-17T09:42:49;35.47;;;14.88;;
75486;SDS011;64068;44.762;21.514;2022-10-17T09:45:18;18.55;;;10.18;;
75486;SDS011;64068;44.762;21.514;2022-10-17T09:50:28;8.85;;;6.13;;
75486;SDS011;64068;44.762;21.514;2022-10-17T09:52:55;10.98;;;5.82;;
75486;SDS011;64068;44.762;21.514;2022-10-17T09:55:41;7.35;;;5.10;;
75486;SDS011;64068;44.762;21.514;2022-10-17T09:58:08;16.65;;;6.07;;
75486;SDS011;64068;44.762;21.514;2022-10-17T10:00:36;9.45;;;6.78;;
75486;SDS011;64068;44.762;21.514;2022-10-17T10:05:38;10.18;;;5.75;;
75486;SDS011;64068;44.762;21.514;2022-10-17T10:08:46;10.02;;;6.28;;
75486;SDS011;64068;44.762;21.514;2022-10-17T10:11:01;9.68;;;5.75;;
75486;SDS011;64068;44.762;21.514;2022-10-17T10:13:28;20.48;;;10.38;;
75486;SDS011;64068;44.762;21.514;2022-10-17T10:15:55;13.00;;;8.48;;
75486;SDS011;64068;44.762;21.514;2022-10-17T10:18:37;20.95;;;11.63;;
75486;SDS011;64068;44.762;21.514;2022-10-17T10:23:36;18.67;;;10.35;;
75486;SDS011;64068;44.762;21.514;2022-10-17T10:26:22;18.27;;;9.55;;
75486;SDS011;64068;44.762;21.514;2022-10-17T10:29:02;7.45;;;6.38;;
75486;SDS011;64068;44.762;21.514;2022-10-17T10:31:30;10.27;;;6.13;;
75486;SDS011;64068;44.762;21.514;2022-10-17T10:33:58;19.73;;;10.52;;
75486;SDS011;64068;44.762;21.514;2022-10-17T10:36:25;16.83;;;10.07;;
75486;SDS011;64068;44.762;21.514;2022-10-17T10:38:52;23.38;;;11.20;;
75486;SDS011;64068;44.762;21.514;2022-10-17T10:41:19;41.45;;;21.13;;
75486;SDS011;64068;44.762;21.514;2022-10-17T10:43:46;22.77;;;13.30;;
75486;SDS011;64068;44.762;21.514;2022-10-17T10:46:20;22.98;;;13.00;;
75486;SDS011;64068;44.762;21.514;2022-10-17T10:48:50;12.20;;;8.40;;
75486;SDS011;64068;44.762;21.514;2022-10-17T10:51:18;8.98;;;7.22;;
75486;SDS011;64068;44.762;21.514;2022-10-17T10:56:17;9.32;;;6.20;;
75486;SDS011;64068;44.762;21.514;2022-10-17T11:01:49;6.47;;;5.75;;
75486;SDS011;64068;44.762;21.514;2022-10-17T11:07:01;7.70;;;6.72;;
75486;SDS011;64068;44.762;21.514;2022-10-17T11:12:05;9.20;;;6.35;;
75486;SDS011;64068;44.762;21.514;2022-10-17T11:14:44;7.97;;;6.45;;
75486;SDS011;64068;44.762;21.514;2022-10-17T11:22:27;8.13;;;6.50;;
75486;SDS011;64068;44.762;21.514;2022-10-17T11:25:04;9.02;;;7.07;;
75486;SDS011;64068;44.762;21.514;2022-10-17T11:27:33;15.45;;;10.38;;
75486;SDS011;64068;44.762;21.514;2022-10-17T11:29:59;13.15;;;9.27;;
75486;SDS011;64068;44.762;21.514;2022-10-17T11:32:30;12.32;;;8.85;;
75486;SDS011;64068;44.762;21.514;2022-10-17T11:35:21;7.63;;;6.05;;
75486;SDS011;64068;44.762;21.514;2022-10-17T11:37:57;9.63;;;7.07;;
75486;SDS011;64068;44.762;21.514;2022-10-17T11:40:44;9.70;;;6.53;;
75486;SDS011;64068;44.762;21.514;2022-10-17T11:45:50;7.68;;;7.00;;
75486;SDS011;64068;44.762;21.514;2022-10-17T11:48:22;10.80;;;8.47;;
75486;SDS011;64068;44.762;21.514;2022-10-17T11:50:51;8.45;;;7.20;;
75486;SDS011;64068;44.762;21.514;2022-10-17T11:53:21;6.55;;;5.90;;
75486;SDS011;64068;44.762;21.514;2022-10-17T11:55:47;8.27;;;6.35;;
75486;SDS011;64068;44.762;21.514;2022-10-17T11:58:28;7.28;;;6.57;;
75486;SDS011;64068;44.762;21.514;2022-10-17T12:03:41;12.20;;;6.60;;
75486;SDS011;64068;44.762;21.514;2022-10-17T12:06:17;10.73;;;7.22;;
75486;SDS011;64068;44.762;21.514;2022-10-17T12:08:59;8.50;;;7.28;;
75486;SDS011;64068;44.762;21.514;2022-10-17T12:11:36;8.82;;;6.30;;
75486;SDS011;64068;44.762;21.514;2022-10-17T12:14:50;10.57;;;6.50;;
75486;SDS011;64068;44.762;21.514;2022-10-17T12:16:50;8.55;;;6.50;;
75486;SDS011;64068;44.762;21.514;2022-10-17T12:19:22;7.35;;;6.75;;
75486;SDS011;64068;44.762;21.514;2022-10-17T12:21:52;7.75;;;6.95;;
75486;SDS011;64068;44.762;21.514;2022-10-17T12:24:38;8.52;;;6.65;;
75486;SDS011;64068;44.762;21.514;2022-10-17T12:27:21;7.72;;;6.53;;
75486;SDS011;64068;44.762;21.514;2022-10-17T12:29:48;7.55;;;6.82;;
75486;SDS011;64068;44.762;21.514;2022-10-17T12:32:15;8.70;;;6.85;;
75486;SDS011;64068;44.762;21.514;2022-10-17T12:34:53;10.75;;;6.80;;
75486;SDS011;64068;44.762;21.514;2022-10-17T12:38:22;7.97;;;7.03;;
75486;SDS011;64068;44.762;21.514;2022-10-17T12:45:49;8.63;;;6.20;;
75486;SDS011;64068;44.762;21.514;2022-10-17T12:56:30;7.07;;;5.68;;
75486;SDS011;64068;44.762;21.514;2022-10-17T12:58:57;6.10;;;5.13;;
75486;SDS011;64068;44.762;21.514;2022-10-17T13:01:26;12.40;;;6.15;;
75486;SDS011;64068;44.762;21.514;2022-10-17T13:03:53;6.70;;;6.10;;
75486;SDS011;64068;44.762;21.514;2022-10-17T13:06:26;8.60;;;5.97;;
75486;SDS011;64068;44.762;21.514;2022-10-17T13:09:00;6.30;;;5.63;;
75486;SDS011;64068;44.762;21.514;2022-10-17T13:11:27;8.30;;;6.00;;
75486;SDS011;64068;44.762;21.514;2022-10-17T13:13:56;5.90;;;5.28;;
75486;SDS011;64068;44.762;21.514;2022-10-17T13:17:05;7.30;;;5.70;;
75486;SDS011;64068;44.762;21.514;2022-10-17T13:19:14;9.80;;;6.20;;
75486;SDS011;64068;44.762;21.514;2022-10-17T13:21:54;7.80;;;5.30;;
75486;SDS011;64068;44.762;21.514;2022-10-17T13:24:35;9.25;;;5.35;;
75486;SDS011;64068;44.762;21.514;2022-10-17T13:27:02;7.57;;;4.80;;
75486;SDS011;64068;44.762;21.514;2022-10-17T13:29:29;7.50;;;4.70;;
75486;SDS011;64068;44.762;21.514;2022-10-17T13:32:00;5.40;;;4.13;;
75486;SDS011;64068;44.762;21.514;2022-10-17T13:36:54;6.15;;;3.78;;
75486;SDS011;64068;44.762;21.514;2022-10-17T13:39:24;7.38;;;3.40;;
75486;SDS011;64068;44.762;21.514;2022-10-17T13:41:51;7.20;;;3.80;;
75486;SDS011;64068;44.762;21.514;2022-10-17T13:44:22;4.10;;;3.50;;
75486;SDS011;64068;44.762;21.514;2022-10-17T13:46:48;6.47;;;4.20;;
75486;SDS011;64068;44.762;21.514;2022-10-17T13:49:22;8.73;;;4.10;;
75486;SDS011;64068;44.762;21.514;2022-10-17T13:51:49;11.27;;;5.88;;
75486;SDS011;64068;44.762;21.514;2022-10-17T13:54:28;13.40;;;7.07;;
75486;SDS011;64068;44.762;21.514;2022-10-17T13:56:55;15.75;;;8.15;;
75486;SDS011;64068;44.762;21.514;2022-10-17T13:59:23;22.15;;;7.70;;
75486;SDS011;64068;44.762;21.514;2022-10-17T14:01:49;18.73;;;7.45;;
75486;SDS011;64068;44.762;21.514;2022-10-17T14:04:16;18.13;;;7.55;;
75486;SDS011;64068;44.762;21.514;2022-10-17T14:06:42;13.25;;;5.53;;
75486;SDS011;64068;44.762;21.514;2022-10-17T14:09:22;12.85;;;6.18;;
75486;SDS011;64068;44.762;21.514;2022-10-17T14:12:02;11.55;;;6.10;;
75486;SDS011;64068;44.762;21.514;2022-10-17T14:14:31;19.80;;;7.15;;
75486;SDS011;64068;44.762;21.514;2022-10-17T14:16:58;12.80;;;6.25;;
75486;SDS011;64068;44.762;21.514;2022-10-17T14:19:26;11.50;;;7.05;;
75486;SDS011;64068;44.762;21.514;2022-10-17T14:22:02;19.88;;;8.32;;
75486;SDS011;64068;44.762;21.514;2022-10-17T14:24:38;16.25;;;7.55;;
75486;SDS011;64068;44.762;21.514;2022-10-17T14:29:52;15.50;;;8.43;;
75486;SDS011;64068;44.762;21.514;2022-10-17T14:32:18;19.42;;;7.18;;
75486;SDS011;64068;44.762;21.514;2022-10-17T14:34:44;8.27;;;5.25;;
75486;SDS011;64068;44.762;21.514;2022-10-17T14:40:13;13.95;;;7.75;;
75486;SDS011;64068;44.762;21.514;2022-10-17T14:42:40;28.20;;;12.25;;
75486;SDS011;64068;44.762;21.514;2022-10-17T14:45:07;28.38;;;13.40;;
75486;SDS011;64068;44.762;21.514;2022-10-17T14:47:37;39.28;;;12.65;;
75486;SDS011;64068;44.762;21.514;2022-10-17T14:50:15;23.30;;;11.63;;
75486;SDS011;64068;44.762;21.514;2022-10-17T14:52:58;21.83;;;9.20;;
75486;SDS011;64068;44.762;21.514;2022-10-17T14:55:25;11.63;;;6.13;;
75486;SDS011;64068;44.762;21.514;2022-10-17T14:57:52;18.52;;;7.07;;
75486;SDS011;64068;44.762;21.514;2022-10-17T15:00:19;16.63;;;7.63;;
75486;SDS011;64068;44.762;21.514;2022-10-17T15:02:47;13.98;;;7.63;;
75486;SDS011;64068;44.762;21.514;2022-10-17T15:05:13;19.25;;;8.98;;
75486;SDS011;64068;44.762;21.514;2022-10-17T15:07:40;19.75;;;9.50;;
75486;SDS011;64068;44.762;21.514;2022-10-17T15:10:10;27.17;;;12.50;;
75486;SDS011;64068;44.762;21.514;2022-10-17T15:12:42;34.47;;;14.65;;
75486;SDS011;64068;44.762;21.514;2022-10-17T15:15:08;37.42;;;15.95;;
75486;SDS011;64068;44.762;21.514;2022-10-17T15:17:35;47.38;;;18.08;;
75486;SDS011;64068;44.762;21.514;2022-10-17T15:20:01;50.03;;;23.95;;
75486;SDS011;64068;44.762;21.514;2022-10-17T15:22:27;47.58;;;24.45;;
75486;SDS011;64068;44.762;21.514;2022-10-17T15:24:55;64.95;;;33.10;;
75486;SDS011;64068;44.762;21.514;2022-10-17T15:27:22;99.82;;;53.25;;
75486;SDS011;64068;44.762;21.514;2022-10-17T15:29:49;133.88;;;71.85;;
75486;SDS011;64068;44.762;21.514;2022-10-17T15:32:15;102.82;;;55.88;;
75486;SDS011;64068;44.762;21.514;2022-10-17T15:34:42;49.63;;;26.75;;
75486;SDS011;64068;44.762;21.514;2022-10-17T15:37:19;46.38;;;27.70;;
75486;SDS011;64068;44.762;21.514;2022-10-17T15:39:50;40.40;;;23.55;;
75486;SDS011;64068;44.762;21.514;2022-10-17T15:42:26;35.65;;;18.40;;
75486;SDS011;64068;44.762;21.514;2022-10-17T15:44:52;49.10;;;23.27;;
75486;SDS011;64068;44.762;21.514;2022-10-17T15:47:21;45.42;;;20.90;;
75486;SDS011;64068;44.762;21.514;2022-10-17T15:49:48;43.55;;;21.40;;
75486;SDS011;64068;44.762;21.514;2022-10-17T15:52:15;37.60;;;18.10;;
75486;SDS011;64068;44.762;21.514;2022-10-17T15:54:41;29.02;;;16.20;;
75486;SDS011;64068;44.762;21.514;2022-10-17T15:57:07;29.95;;;15.13;;
75486;SDS011;64068;44.762;21.514;2022-10-17T16:02:09;19.63;;;13.13;;
75486;SDS011;64068;44.762;21.514;2022-10-17T16:04:37;18.13;;;10.35;;
75486;SDS011;64068;44.762;21.514;2022-10-17T16:07:03;21.55;;;12.50;;
75486;SDS011;64068;44.762;21.514;2022-10-17T16:09:30;22.38;;;14.65;;